sensor_id;sensor_type;location;lat;lon;timestamp;temperature;humidity
240;DHT22;104;53.590;10.004;2023-05-29T00:01:24;15.20;81.60
240;DHT22;104;53.590;10.004;2023-05-29T00:03:51;15.30;83.50
240;DHT22;104;53.590;10.004;2023-05-29T00:06:19;15.20;83.90
240;DHT22;104;53.590;10.004;2023-05-29T00:08:46;15.00;83.80
240;DHT22;104;53.590;10.004;2023-05-29T00:11:13;14.90;82.70
240;DHT22;104;53.590;10.004;2023-05-29T00:13:40;14.80;83.40
240;DHT22;104;53.590;10.004;2023-05-29T00:16:08;14.80;83.40
240;DHT22;104;53.590;10.004;2023-05-29T00:18:36;14.80;83.30
240;DHT22;104;53.590;10.004;2023-05-29T00:21:11;14.80;83.40
240;DHT22;104;53.590;10.004;2023-05-29T00:23:38;14.60;83.90
240;DHT22;104;53.590;10.004;2023-05-29T00:26:05;14.60;83.80
240;DHT22;104;53.590;10.004;2023-05-29T00:28:32;14.60;84.60
240;DHT22;104;53.590;10.004;2023-05-29T00:33:28;14.50;83.10
240;DHT22;104;53.590;10.004;2023-05-29T00:35:55;14.50;83.00
240;DHT22;104;53.590;10.004;2023-05-29T00:38:22;14.50;82.80
240;DHT22;104;53.590;10.004;2023-05-29T00:40:49;14.50;81.00
240;DHT22;104;53.590;10.004;2023-05-29T00:43:15;14.50;80.40
240;DHT22;104;53.590;10.004;2023-05-29T00:45:42;14.50;80.30
240;DHT22;104;53.590;10.004;2023-05-29T00:48:09;14.40;79.60
240;DHT22;104;53.590;10.004;2023-05-29T00:53:06;14.40;79.30
240;DHT22;104;53.590;10.004;2023-05-29T00:55:33;14.30;79.30
240;DHT22;104;53.590;10.004;2023-05-29T00:58:01;14.30;78.90
240;DHT22;104;53.590;10.004;2023-05-29T01:02:57;14.30;79.10
240;DHT22;104;53.590;10.004;2023-05-29T01:05:24;14.20;79.50
240;DHT22;104;53.590;10.004;2023-05-29T01:10:20;14.20;79.70
240;DHT22;104;53.590;10.004;2023-05-29T01:12:49;14.20;79.70
240;DHT22;104;53.590;10.004;2023-05-29T01:15:29;14.10;80.10
240;DHT22;104;53.590;10.004;2023-05-29T01:18:08;14.10;80.10
240;DHT22;104;53.590;10.004;2023-05-29T01:20:42;14.10;80.10
240;DHT22;104;53.590;10.004;2023-05-29T01:23:31;14.00;80.30
240;DHT22;104;53.590;10.004;2023-05-29T01:26:11;13.90;80.40
240;DHT22;104;53.590;10.004;2023-05-29T01:28:46;13.90;80.40
240;DHT22;104;53.590;10.004;2023-05-29T01:31:15;13.90;81.00
240;DHT22;104;53.590;10.004;2023-05-29T01:33:51;13.90;81.80
240;DHT22;104;53.590;10.004;2023-05-29T01:36:18;13.90;81.80
240;DHT22;104;53.590;10.004;2023-05-29T01:38:45;13.90;82.40
240;DHT22;104;53.590;10.004;2023-05-29T01:41:14;13.70;83.40
240;DHT22;104;53.590;10.004;2023-05-29T01:43:43;13.80;83.50
240;DHT22;104;53.590;10.004;2023-05-29T01:46:10;13.70;83.90
240;DHT22;104;53.590;10.004;2023-05-29T01:48:37;13.70;83.90
240;DHT22;104;53.590;10.004;2023-05-29T01:51:04;13.70;83.80
240;DHT22;104;53.590;10.004;2023-05-29T01:53:32;13.70;84.10
240;DHT22;104;53.590;10.004;2023-05-29T01:55:59;13.70;83.90
240;DHT22;104;53.590;10.004;2023-05-29T01:58:28;13.70;83.40
240;DHT22;104;53.590;10.004;2023-05-29T02:00:57;13.70;83.30
240;DHT22;104;53.590;10.004;2023-05-29T02:03:24;13.60;82.80
240;DHT22;104;53.590;10.004;2023-05-29T02:10:49;13.50;82.90
240;DHT22;104;53.590;10.004;2023-05-29T02:15:43;13.30;83.90
240;DHT22;104;53.590;10.004;2023-05-29T02:18:14;13.30;84.60
240;DHT22;104;53.590;10.004;2023-05-29T02:23:10;13.40;84.40
240;DHT22;104;53.590;10.004;2023-05-29T02:28:04;13.40;84.60
240;DHT22;104;53.590;10.004;2023-05-29T02:30:31;13.30;84.90
240;DHT22;104;53.590;10.004;2023-05-29T02:32:58;13.20;85.30
240;DHT22;104;53.590;10.004;2023-05-29T02:35:26;13.10;85.60
240;DHT22;104;53.590;10.004;2023-05-29T02:37:53;13.10;85.90
240;DHT22;104;53.590;10.004;2023-05-29T02:40:20;13.00;86.30
240;DHT22;104;53.590;10.004;2023-05-29T02:42:47;13.00;86.60
240;DHT22;104;53.590;10.004;2023-05-29T02:47:41;13.00;86.40
240;DHT22;104;53.590;10.004;2023-05-29T02:50:09;13.00;86.60
240;DHT22;104;53.590;10.004;2023-05-29T02:52:38;12.90;86.60
240;DHT22;104;53.590;10.004;2023-05-29T02:55:05;12.90;86.70
240;DHT22;104;53.590;10.004;2023-05-29T02:57:33;12.80;86.70
240;DHT22;104;53.590;10.004;2023-05-29T03:00:00;12.90;86.40
240;DHT22;104;53.590;10.004;2023-05-29T03:02:27;12.90;85.50
240;DHT22;104;53.590;10.004;2023-05-29T03:04:54;12.90;85.60
240;DHT22;104;53.590;10.004;2023-05-29T03:09:49;12.70;86.20
240;DHT22;104;53.590;10.004;2023-05-29T03:12:16;12.70;86.20
240;DHT22;104;53.590;10.004;2023-05-29T03:14:44;12.70;86.60
240;DHT22;104;53.590;10.004;2023-05-29T03:19:38;12.70;86.90
240;DHT22;104;53.590;10.004;2023-05-29T03:22:05;12.70;87.30
240;DHT22;104;53.590;10.004;2023-05-29T03:24:32;12.70;87.60
240;DHT22;104;53.590;10.004;2023-05-29T03:29:31;12.70;87.50
240;DHT22;104;53.590;10.004;2023-05-29T03:31:58;12.70;87.00
240;DHT22;104;53.590;10.004;2023-05-29T03:34:25;12.70;87.10
240;DHT22;104;53.590;10.004;2023-05-29T03:36:53;12.70;87.10
240;DHT22;104;53.590;10.004;2023-05-29T03:39:20;12.60;87.80
240;DHT22;104;53.590;10.004;2023-05-29T03:44:16;12.60;87.60
240;DHT22;104;53.590;10.004;2023-05-29T03:46:42;12.60;87.30
240;DHT22;104;53.590;10.004;2023-05-29T03:49:09;12.80;86.10
240;DHT22;104;53.590;10.004;2023-05-29T03:51:36;12.70;85.90
240;DHT22;104;53.590;10.004;2023-05-29T03:58:58;12.80;85.50
240;DHT22;104;53.590;10.004;2023-05-29T04:01:26;12.90;84.80
240;DHT22;104;53.590;10.004;2023-05-29T04:03:53;12.90;83.90
240;DHT22;104;53.590;10.004;2023-05-29T04:06:20;12.90;84.00
240;DHT22;104;53.590;10.004;2023-05-29T04:08:48;12.90;84.10
240;DHT22;104;53.590;10.004;2023-05-29T13:57:07;26.30;38.70
240;DHT22;104;53.590;10.004;2023-05-29T13:59:35;26.40;37.10
240;DHT22;104;53.590;10.004;2023-05-29T14:04:30;26.60;38.10
240;DHT22;104;53.590;10.004;2023-05-29T14:06:59;26.60;37.80
240;DHT22;104;53.590;10.004;2023-05-29T14:09:26;26.60;37.90
240;DHT22;104;53.590;10.004;2023-05-29T14:11:54;26.60;38.50
240;DHT22;104;53.590;10.004;2023-05-29T14:14:22;26.60;38.30
240;DHT22;104;53.590;10.004;2023-05-29T14:16:49;26.50;38.10
240;DHT22;104;53.590;10.004;2023-05-29T14:19:17;26.40;37.80
240;DHT22;104;53.590;10.004;2023-05-29T14:21:45;26.30;37.70
240;DHT22;104;53.590;10.004;2023-05-29T14:26:43;26.40;38.80
240;DHT22;104;53.590;10.004;2023-05-29T14:29:12;26.30;35.70
240;DHT22;104;53.590;10.004;2023-05-29T14:31:39;26.30;35.70
240;DHT22;104;53.590;10.004;2023-05-29T14:34:06;26.30;34.00
240;DHT22;104;53.590;10.004;2023-05-29T14:36:34;26.20;33.90
240;DHT22;104;53.590;10.004;2023-05-29T14:39:01;26.20;36.00
240;DHT22;104;53.590;10.004;2023-05-29T14:46:29;26.00;37.00
240;DHT22;104;53.590;10.004;2023-05-29T14:51:25;26.00;36.60
240;DHT22;104;53.590;10.004;2023-05-29T14:53:52;26.00;36.40
240;DHT22;104;53.590;10.004;2023-05-29T14:56:19;26.00;36.40
240;DHT22;104;53.590;10.004;2023-05-29T14:58:48;26.00;36.70
240;DHT22;104;53.590;10.004;2023-05-29T15:01:15;26.20;36.40
240;DHT22;104;53.590;10.004;2023-05-29T15:03:43;26.20;35.10
240;DHT22;104;53.590;10.004;2023-05-29T15:06:10;26.20;35.00
240;DHT22;104;53.590;10.004;2023-05-29T15:08:38;26.20;34.50
240;DHT22;104;53.590;10.004;2023-05-29T15:11:07;26.30;34.20
240;DHT22;104;53.590;10.004;2023-05-29T15:13:35;26.20;34.90
240;DHT22;104;53.590;10.004;2023-05-29T15:16:04;26.20;35.00
240;DHT22;104;53.590;10.004;2023-05-29T15:18:33;26.20;36.10
240;DHT22;104;53.590;10.004;2023-05-29T15:21:00;26.20;36.10
240;DHT22;104;53.590;10.004;2023-05-29T15:23:27;25.90;36.60
240;DHT22;104;53.590;10.004;2023-05-29T15:28:22;25.80;37.10
240;DHT22;104;53.590;10.004;2023-05-29T15:30:49;25.80;37.00
240;DHT22;104;53.590;10.004;2023-05-29T15:33:19;25.90;36.60
240;DHT22;104;53.590;10.004;2023-05-29T15:35:46;25.80;36.90
240;DHT22;104;53.590;10.004;2023-05-29T15:38:13;25.90;36.90
240;DHT22;104;53.590;10.004;2023-05-29T15:40:41;25.90;37.00
240;DHT22;104;53.590;10.004;2023-05-29T15:43:08;25.80;37.20
240;DHT22;104;53.590;10.004;2023-05-29T15:45:36;25.70;35.20
240;DHT22;104;53.590;10.004;2023-05-29T15:52:59;25.70;36.40
240;DHT22;104;53.590;10.004;2023-05-29T15:55:27;25.80;36.70
240;DHT22;104;53.590;10.004;2023-05-29T16:00:28;25.70;36.40
240;DHT22;104;53.590;10.004;2023-05-29T16:05:22;25.60;36.50
240;DHT22;104;53.590;10.004;2023-05-29T16:07:51;25.60;36.80
240;DHT22;104;53.590;10.004;2023-05-29T16:10:18;25.60;36.90
240;DHT22;104;53.590;10.004;2023-05-29T16:12:46;25.60;35.80
240;DHT22;104;53.590;10.004;2023-05-29T16:15:16;25.60;35.80
240;DHT22;104;53.590;10.004;2023-05-29T16:17:43;25.40;36.30
240;DHT22;104;53.590;10.004;2023-05-29T16:20:11;25.30;36.60
240;DHT22;104;53.590;10.004;2023-05-29T16:25:08;25.30;35.60
240;DHT22;104;53.590;10.004;2023-05-29T16:27:35;25.20;36.80
240;DHT22;104;53.590;10.004;2023-05-29T16:30:03;25.20;36.80
240;DHT22;104;53.590;10.004;2023-05-29T16:32:30;25.20;37.70
240;DHT22;104;53.590;10.004;2023-05-29T16:34:57;25.10;37.60
240;DHT22;104;53.590;10.004;2023-05-29T16:37:24;25.00;37.40
240;DHT22;104;53.590;10.004;2023-05-29T16:39:51;24.90;37.80
240;DHT22;104;53.590;10.004;2023-05-29T16:42:20;24.90;37.80
240;DHT22;104;53.590;10.004;2023-05-29T16:44:47;24.90;37.60
240;DHT22;104;53.590;10.004;2023-05-29T16:47:14;24.80;36.30
240;DHT22;104;53.590;10.004;2023-05-29T16:52:09;24.70;36.20
240;DHT22;104;53.590;10.004;2023-05-29T16:54:36;24.60;35.70
240;DHT22;104;53.590;10.004;2023-05-29T16:57:06;24.60;35.70
240;DHT22;104;53.590;10.004;2023-05-29T16:59:35;24.60;36.30
240;DHT22;104;53.590;10.004;2023-05-29T17:02:02;24.60;37.10
240;DHT22;104;53.590;10.004;2023-05-29T17:06:58;24.50;37.80
240;DHT22;104;53.590;10.004;2023-05-29T17:09:25;24.60;38.00
240;DHT22;104;53.590;10.004;2023-05-29T17:11:52;24.40;37.80
240;DHT22;104;53.590;10.004;2023-05-29T17:14:20;24.40;37.90
240;DHT22;104;53.590;10.004;2023-05-29T17:16:50;24.40;37.40
240;DHT22;104;53.590;10.004;2023-05-29T17:19:17;24.30;37.00
240;DHT22;104;53.590;10.004;2023-05-29T17:21:44;24.20;37.80
240;DHT22;104;53.590;10.004;2023-05-29T17:26:43;24.10;37.10
240;DHT22;104;53.590;10.004;2023-05-29T17:56:22;23.40;40.30
240;DHT22;104;53.590;10.004;2023-05-29T18:33:29;23.00;42.50
240;DHT22;104;53.590;10.004;2023-05-29T18:38:49;22.90;42.30
240;DHT22;104;53.590;10.004;2023-05-29T18:41:21;22.80;42.70
240;DHT22;104;53.590;10.004;2023-05-29T18:43:48;22.50;43.20
240;DHT22;104;53.590;10.004;2023-05-29T18:48:57;22.20;43.50
240;DHT22;104;53.590;10.004;2023-05-29T18:56:19;21.90;44.00
240;DHT22;104;53.590;10.004;2023-05-29T18:58:48;21.80;44.20
240;DHT22;104;53.590;10.004;2023-05-29T19:23:30;20.90;46.40
240;DHT22;104;53.590;10.004;2023-05-29T19:25:58;20.90;46.40
240;DHT22;104;53.590;10.004;2023-05-29T19:38:17;20.40;47.60
240;DHT22;104;53.590;10.004;2023-05-29T19:40:44;20.20;47.90
240;DHT22;104;53.590;10.004;2023-05-29T19:43:12;20.10;48.00
240;DHT22;104;53.590;10.004;2023-05-29T19:48:08;20.10;48.20
240;DHT22;104;53.590;10.004;2023-05-29T19:50:36;19.90;48.80
240;DHT22;104;53.590;10.004;2023-05-29T19:53:03;19.90;48.80
240;DHT22;104;53.590;10.004;2023-05-29T19:55:31;19.70;49.00
240;DHT22;104;53.590;10.004;2023-05-29T19:57:58;19.90;48.70
240;DHT22;104;53.590;10.004;2023-05-29T20:00:25;19.70;48.60
240;DHT22;104;53.590;10.004;2023-05-29T20:02:52;19.80;48.10
240;DHT22;104;53.590;10.004;2023-05-29T20:05:19;20.00;47.60
240;DHT22;104;53.590;10.004;2023-05-29T20:07:47;20.00;47.60
240;DHT22;104;53.590;10.004;2023-05-29T20:10:15;19.90;47.80
240;DHT22;104;53.590;10.004;2023-05-29T20:17:39;19.80;48.80
240;DHT22;104;53.590;10.004;2023-05-29T20:20:06;19.80;48.30
240;DHT22;104;53.590;10.004;2023-05-29T20:27:30;19.50;49.40
240;DHT22;104;53.590;10.004;2023-05-29T20:29:59;19.60;52.40
240;DHT22;104;53.590;10.004;2023-05-29T20:34:54;19.60;51.70
240;DHT22;104;53.590;10.004;2023-05-29T20:37:21;19.70;53.30
240;DHT22;104;53.590;10.004;2023-05-29T20:39:49;19.60;51.40
240;DHT22;104;53.590;10.004;2023-05-29T20:57:06;19.20;54.10
240;DHT22;104;53.590;10.004;2023-05-29T20:59:35;19.10;53.80
240;DHT22;104;53.590;10.004;2023-05-29T21:02:02;19.00;53.60
240;DHT22;104;53.590;10.004;2023-05-29T21:04:28;18.90;55.50
240;DHT22;104;53.590;10.004;2023-05-29T21:09:25;18.80;55.10
240;DHT22;104;53.590;10.004;2023-05-29T21:11:52;18.80;53.70
240;DHT22;104;53.590;10.004;2023-05-29T21:14:20;18.80;53.80
240;DHT22;104;53.590;10.004;2023-05-29T21:16:49;18.80;53.90
240;DHT22;104;53.590;10.004;2023-05-29T21:21:43;18.70;56.60
240;DHT22;104;53.590;10.004;2023-05-29T21:24:12;18.50;57.30
240;DHT22;104;53.590;10.004;2023-05-29T21:34:08;18.10;60.90
240;DHT22;104;53.590;10.004;2023-05-29T21:36:35;18.10;60.90
240;DHT22;104;53.590;10.004;2023-05-29T21:39:03;18.00;60.70
240;DHT22;104;53.590;10.004;2023-05-29T21:41:31;17.80;59.90
240;DHT22;104;53.590;10.004;2023-05-29T21:51:22;17.60;59.60
240;DHT22;104;53.590;10.004;2023-05-29T21:53:49;17.50;59.30
240;DHT22;104;53.590;10.004;2023-05-29T21:56:17;17.50;59.30
240;DHT22;104;53.590;10.004;2023-05-29T22:16:09;17.50;64.50
240;DHT22;104;53.590;10.004;2023-05-29T22:18:37;17.40;65.60
240;DHT22;104;53.590;10.004;2023-05-29T22:28:38;17.10;66.70
240;DHT22;104;53.590;10.004;2023-05-29T22:31:05;17.10;66.70
240;DHT22;104;53.590;10.004;2023-05-29T22:33:32;17.10;65.90
240;DHT22;104;53.590;10.004;2023-05-29T22:36:00;17.10;65.90
240;DHT22;104;53.590;10.004;2023-05-29T22:38:27;17.00;66.20
240;DHT22;104;53.590;10.004;2023-05-29T22:45:50;16.90;66.50
240;DHT22;104;53.590;10.004;2023-05-29T22:48:17;16.90;66.20
240;DHT22;104;53.590;10.004;2023-05-29T22:50:46;16.90;66.50
240;DHT22;104;53.590;10.004;2023-05-29T22:53:13;16.80;66.90
240;DHT22;104;53.590;10.004;2023-05-29T22:55:41;16.80;66.80
240;DHT22;104;53.590;10.004;2023-05-29T22:58:13;16.80;67.00
240;DHT22;104;53.590;10.004;2023-05-29T23:00:41;16.70;67.00
240;DHT22;104;53.590;10.004;2023-05-29T23:03:08;16.70;67.10
240;DHT22;104;53.590;10.004;2023-05-29T23:05:35;16.80;67.00
240;DHT22;104;53.590;10.004;2023-05-29T23:08:02;16.70;67.10
240;DHT22;104;53.590;10.004;2023-05-29T23:10:30;16.70;67.40
240;DHT22;104;53.590;10.004;2023-05-29T23:12:57;16.70;67.60
240;DHT22;104;53.590;10.004;2023-05-29T23:15:24;16.70;67.70
240;DHT22;104;53.590;10.004;2023-05-29T23:17:52;16.70;67.90
240;DHT22;104;53.590;10.004;2023-05-29T23:20:19;16.70;67.90
240;DHT22;104;53.590;10.004;2023-05-29T23:30:09;16.60;68.80
240;DHT22;104;53.590;10.004;2023-05-29T23:32:36;16.50;69.00
240;DHT22;104;53.590;10.004;2023-05-29T23:35:05;16.50;69.20
240;DHT22;104;53.590;10.004;2023-05-29T23:37:33;16.50;69.20
240;DHT22;104;53.590;10.004;2023-05-29T23:40:00;16.50;69.10
240;DHT22;104;53.590;10.004;2023-05-29T23:47:24;16.60;69.30
240;DHT22;104;53.590;10.004;2023-05-29T23:49:51;16.50;69.40
240;DHT22;104;53.590;10.004;2023-05-29T23:52:19;16.50;69.90
240;DHT22;104;53.590;10.004;2023-05-29T23:54:47;16.40;70.30
240;DHT22;104;53.590;10.004;2023-05-29T23:59:41;16.40;70.10
